Gillette, WY

11:32 PM MDT on October 22, 2014 (GMT -0600)
RAWS ECHETA WY US | Change Station
CLOSE
Current Station
Personal Weather Station
Location: Gillette, WY
Elevation: 4396 ft
Nearby Weather Stations

Elev 4396 ft 44.47 °N, 105.84 °W | Updated 41 minutes ago

Clear
Clear
43 °F
Feels Like 38 °F
N
9
Wind Variable Wind from SSE
Gusts 12.0 mph

Today
High -- | Low -- °F
--% Chance of Precip.
Yesterday
High -- | Low -- °F
Precip. -- in
7:27 AM 6:06 PM
Waning Crescent, 0% visible
Pressure 30.03 in
Visibility 10.0 miles
Clouds Clear
Windchill 38 °F
Dew Point 17 °F
Humidity 34%
Rainfall 0.00 in
Snow Depth Not available.
UV 0 out of 12
Pollen 2.10 out of 12
Air Quality Not available.
Flu Activity Sporadic
METAR KGCC 230453Z AUTO 19003KT 10SM CLR 04/M06 A3004 RMK AO2 SLP167 T00391061 $

More Conditions Fewer Conditions

Pressure 30.03 in
Visibility 10.0 miles
Clouds Clear
Windchill 38 °F
Dew Point 17 °F
Humidity 34%
Rainfall 0.00 in
Snow Depth Not available.
UV 0 out of 12
Pollen 2.10 out of 12
Air Quality Not available.
Flu Activity Sporadic
METAR KGCC 230453Z AUTO 19003KT 10SM CLR 04/M06 A3004 RMK AO2 SLP167 T00391061 $

More Conditions Fewer Conditions

10-Day Weather Forecast

Almanac

Astronomy

Oct. 22, 2014 Rise Set
Actual Time 7:27 AM MDT 6:06 PM MDT
Civil Twilight 6:57 AM MDT 6:36 PM MDT
Nautical Twilight 6:23 AM MDT 7:10 PM MDT
Astronomical Twilight 5:49 AM MDT 7:43 PM MDT
Moon 6:08 AM MDT (10/22) 5:36 PM MDT (10/22)
Length of Visible Light 11h 38m
Length of Day
10h 39m
Tomorrow will be 2m 53s shorter.
Waning Crescent, 0% of the Moon is Illuminated
Oct 23
Waning Crescent
Oct 23
New
Oct 30
First Quarter
Nov 6
Full
Nov 14
Last Quarter

Yesterday's Extremes

State Highs State Lows

Community

WunderPhotos

Upload Photos

1,764,184 photos uploaded!

Nearby

Snow Depth

Station Depth Elevation
Casper Mountain 0 in 7850 ft
Reno Hill 0 in 8500 ft
Laprele Creek 1 in 8375 ft
Windy Peak 0 in 7900 ft
Sand Lake 5 in 10050 ft

Earthquake Activity

City Distance Mag. Time & Date
No recent earthquake activity has been reported nearby.
Minimum magnitude displayed is 2.5.

Coastal Water Temperatures

Place Temperature
No Stations Reporting

Nearby Weather Stations